Time;durP1;ratioP1;P1;durP2;ratioP2;P2;SDS_P1;SDS_P2;PMS_P1;PMS_P2;Temp;Humidity;BMP_temperature;BMP_pressure;BME280_temperature;BME280_humidity;BME280_pressure;Samples;Min_cycle;Max_cycle;Signal;HPM_P1;HPM_P2
2022/06/18 00:00:27;;;;;;;21.60;10.50;;;;;;;16.32;51.73;101402.38;1804906;79;21489;-73
2022/06/18 00:02:58;;;;;;;29.00;12.20;;;;;;;16.31;51.84;101401.97;1743700;82;20953;-73
2022/06/18 00:05:24;;;;;;;25.27;11.80;;;;;;;16.31;51.92;101399.81;1802512;79;20937;-73
2022/06/18 00:07:56;;;;;;;20.50;9.98;;;;;;;16.32;52.04;101397.61;1812383;79;20847;-73
2022/06/18 00:10:29;;;;;;;16.75;9.25;;;;;;;16.33;52.12;101396.71;1779786;79;20894;-73
2022/06/18 00:15:42;;;;;;;17.98;8.90;;;;;;;16.35;52.30;101394.47;1809198;79;21422;-73
2022/06/18 00:18:14;;;;;;;14.47;7.35;;;;;;;16.36;52.42;101396.18;1813351;79;26495;-73
2022/06/18 00:20:41;;;;;;;11.28;6.95;;;;;;;16.39;52.52;101390.02;1805780;78;21818;-73
2022/06/18 00:23:13;;;;;;;11.53;5.58;;;;;;;16.42;52.60;101392.55;1812923;79;20882;-73
2022/06/18 00:25:43;;;;;;;6.75;4.70;;;;;;;16.43;52.72;101395.56;1810895;79;21319;-73
2022/06/18 00:28:23;;;;;;;6.65;4.20;;;;;;;16.45;52.87;101395.93;1809293;79;20937;-73
2022/06/18 00:30:51;;;;;;;12.63;5.58;;;;;;;16.49;52.89;101391.48;1802450;79;21386;-73
2022/06/18 00:33:18;;;;;;;9.28;5.20;;;;;;;16.53;52.99;101391.34;1776288;80;21488;-73
2022/06/18 00:35:46;;;;;;;9.35;5.05;;;;;;;16.55;53.05;101392.16;1780263;80;21759;-73
2022/06/18 00:38:28;;;;;;;6.67;4.20;;;;;;;16.60;53.14;101388.56;1770205;80;21481;-73
2022/06/18 00:40:56;;;;;;;11.45;5.53;;;;;;;16.62;53.22;101386.31;1779161;80;21414;-74
2022/06/18 00:43:42;;;;;;;8.38;5.80;;;;;;;16.66;53.34;101384.02;1786132;80;21484;-73
2022/06/18 00:46:23;;;;;;;9.88;6.25;;;;;;;16.69;53.41;101379.16;1779650;80;22323;-73
2022/06/18 00:49:13;;;;;;;15.15;6.70;;;;;;;16.72;53.42;101383.85;1777063;79;21428;-73
2022/06/18 00:51:57;;;;;;;11.25;6.50;;;;;;;16.74;53.49;101377.27;1781340;80;21539;-73
2022/06/18 00:54:35;;;;;;;10.90;6.30;;;;;;;16.75;53.60;101375.92;1768566;80;21512;-73
2022/06/18 00:57:12;;;;;;;9.15;5.80;;;;;;;16.75;53.67;101370.70;1774020;79;21528;-73
2022/06/18 00:59:56;;;;;;;9.65;5.75;;;;;;;16.77;53.75;101370.66;1778305;80;21428;-73
2022/06/18 01:02:30;;;;;;;8.93;5.30;;;;;;;16.77;53.80;101368.05;1778439;80;21421;-73
2022/06/18 01:04:57;;;;;;;6.40;4.00;;;;;;;16.79;53.89;101366.25;1780829;79;20945;-73
2022/06/18 01:07:33;;;;;;;9.85;3.77;;;;;;;16.80;53.90;101362.28;1780631;80;21389;-73
2022/06/18 01:10:05;;;;;;;7.20;4.75;;;;;;;16.82;54.00;101360.48;1770579;79;21334;-73
2022/06/18 01:12:31;;;;;;;6.00;3.87;;;;;;;16.82;54.04;101352.64;1779655;80;21020;-73
2022/06/18 01:15:03;;;;;;;7.30;4.10;;;;;;;16.82;54.10;101358.31;1779198;80;21419;-73
2022/06/18 01:17:31;;;;;;;5.30;3.75;;;;;;;16.82;54.17;101359.63;1770388;79;21081;-73
2022/06/18 01:20:00;;;;;;;7.78;3.75;;;;;;;16.82;54.25;101362.23;1769985;80;20977;-73
2022/06/18 01:22:34;;;;;;;11.38;3.70;;;;;;;16.82;54.29;101347.87;1765827;80;21095;-73
2022/06/18 01:25:05;;;;;;;7.60;3.05;;;;;;;16.82;54.36;101343.95;1726775;81;21534;-73
2022/06/18 01:27:30;;;;;;;5.22;3.20;;;;;;;16.82;54.42;101342.64;1752451;81;21326;-73
2022/06/18 01:29:56;;;;;;;5.85;3.27;;;;;;;16.80;54.47;101337.47;1774056;80;20930;-73
2022/06/18 01:32:24;;;;;;;4.62;3.05;;;;;;;16.80;54.52;101339.22;1741090;80;438826;-73
2022/06/18 01:34:51;;;;;;;5.72;2.90;;;;;;;16.80;54.56;101335.30;1746644;81;20951;-73
2022/06/18 01:37:18;;;;;;;3.65;3.08;;;;;;;16.81;54.60;101326.56;1763322;80;21336;-73
2022/06/18 01:39:47;;;;;;;4.80;2.95;;;;;;;16.79;54.67;101337.06;1766121;80;28065;-73
2022/06/18 01:42:27;;;;;;;5.08;2.90;;;;;;;16.78;54.74;101333.19;1778869;80;20887;-73
2022/06/18 01:45:14;;;;;;;5.45;2.98;;;;;;;16.78;54.80;101331.88;1779670;80;21542;-73
2022/06/18 01:47:58;;;;;;;5.08;2.65;;;;;;;16.77;54.85;101330.17;1764031;80;20923;-73
2022/06/18 01:50:42;;;;;;;4.15;2.40;;;;;;;16.76;54.93;101329.31;1779420;80;21857;-73
2022/06/18 01:53:33;;;;;;;;;;;;;;;16.77;54.99;101332.78;1768394;80;20895;-73
2022/06/18 01:56:04;;;;;;;4.58;2.47;;;;;;;16.77;55.45;101325.80;1766805;80;20140;-73
2022/06/18 01:58:50;;;;;;;3.58;2.58;;;;;;;16.80;55.07;101330.08;1779456;80;20943;-73
2022/06/18 02:01:27;;;;;;;4.10;3.22;;;;;;;16.80;55.11;101324.86;1779336;80;21376;-73
2022/06/18 02:04:01;;;;;;;3.15;2.50;;;;;;;16.83;55.22;101322.16;1776151;80;20899;-73
2022/06/18 02:06:31;;;;;;;3.87;2.77;;;;;;;16.84;55.27;101323.41;1749900;80;21717;-73
2022/06/18 02:09:13;;;;;;;2.83;2.62;;;;;;;16.86;55.36;101321.61;1777130;80;21419;-73
2022/06/18 02:11:40;;;;;;;6.10;2.95;;;;;;;16.89;55.40;101312.83;1753063;80;20986;-73
2022/06/18 02:14:10;;;;;;;4.55;2.60;;;;;;;16.91;55.46;101311.02;1758563;80;21995;-73
2022/06/18 02:16:41;;;;;;;3.90;3.00;;;;;;;16.92;55.51;101307.50;1771445;80;21498;-73
2022/06/18 02:19:09;;;;;;;3.92;2.45;;;;;;;16.92;55.57;101303.58;1769033;80;21466;-73
2022/06/18 02:21:40;;;;;;;3.50;2.45;;;;;;;16.94;55.64;101298.31;1735285;80;21007;-73
2022/06/18 02:24:07;;;;;;;2.87;2.58;;;;;;;16.96;55.69;101299.13;1773276;80;20971;-74
2022/06/18 02:26:36;;;;;;;4.90;2.50;;;;;;;16.97;55.73;101299.52;1771640;80;27054;-74
2022/06/18 02:29:05;;;;;;;3.92;2.70;;;;;;;16.96;55.79;101299.98;1766597;80;21027;-74
2022/06/18 02:31:35;;;;;;;3.42;2.70;;;;;;;16.96;55.83;101296.05;1768953;80;21066;-74
2022/06/18 02:34:09;;;;;;;5.97;2.87;;;;;;;16.97;55.91;101291.23;1771252;80;21462;-73
2022/06/18 02:36:40;;;;;;;4.05;2.87;;;;;;;16.98;55.95;101300.78;1769518;80;21010;-73
2022/06/18 02:39:29;;;;;;;5.15;2.65;;;;;;;16.98;56.03;101294.25;1757417;80;21030;-74
2022/06/18 02:42:04;;;;;;;4.05;2.65;;;;;;;16.99;56.10;101295.96;1755936;81;21031;-73
2022/06/18 02:44:31;;;;;;;4.05;2.60;;;;;;;17.01;56.19;101295.91;1757027;81;20908;-74
2022/06/18 02:47:01;;;;;;;4.65;2.92;;;;;;;17.01;56.20;101290.23;1757021;80;21027;-74
2022/06/18 02:49:31;;;;;;;2.55;2.35;;;;;;;17.03;56.28;101283.66;1756112;81;21088;-73
2022/06/18 02:51:58;;;;;;;2.90;2.30;;;;;;;17.04;56.35;101284.05;1756507;81;21102;-73
2022/06/18 02:54:24;;;;;;;4.37;2.58;;;;;;;17.04;56.42;101278.38;1756554;81;21107;-73
2022/06/18 02:56:51;;;;;;;4.83;3.10;;;;;;;17.05;56.47;101280.09;1741247;81;28285;-74
2022/06/18 02:59:21;;;;;;;3.65;2.85;;;;;;;17.08;56.51;101278.69;1756295;81;20936;-74
2022/06/18 03:01:47;;;;;;;4.67;2.77;;;;;;;17.08;56.56;101281.75;1755530;80;21069;-74
2022/06/18 03:04:14;;;;;;;5.17;2.75;;;;;;;17.08;56.61;101277.37;1756370;81;21074;-74
2022/06/18 03:06:41;;;;;;;7.30;2.40;;;;;;;17.11;56.67;101283.81;1756757;81;20983;-74
2022/06/18 03:09:09;;;;;;;5.22;2.70;;;;;;;17.12;56.71;101278.13;1756208;80;21086;-74
2022/06/18 03:14:23;;;;;;;3.05;2.45;;;;;;;17.14;56.79;101271.09;1756649;81;21043;-73
2022/06/18 03:16:49;;;;;;;3.42;2.20;;;;;;;17.15;56.83;101272.36;1754805;80;21042;-73
2022/06/18 03:19:26;;;;;;;3.40;2.37;;;;;;;17.16;56.89;101271.42;1759553;80;25327;-73
2022/06/18 03:21:57;;;;;;;9.23;2.67;;;;;;;17.18;56.92;101270.06;1756379;81;21130;-73
2022/06/18 03:24:24;;;;;;;8.40;2.30;;;;;;;17.19;56.97;101273.93;1757983;80;20943;-74
2022/06/18 03:26:51;;;;;;;5.22;2.20;;;;;;;17.23;57.01;101272.52;1757876;81;20936;-74
2022/06/18 03:29:18;;;;;;;4.70;2.20;;;;;;;17.27;57.04;101263.68;1758284;81;20912;-73
2022/06/18 03:31:44;;;;;;;6.40;2.62;;;;;;;17.31;57.07;101265.28;1757775;80;20928;-74
2022/06/18 03:34:10;;;;;;;4.20;2.47;;;;;;;17.32;57.13;101265.23;1758138;81;20904;-74
2022/06/18 03:36:37;;;;;;;3.17;2.65;;;;;;;17.37;57.14;101263.32;1758296;81;20928;-74
2022/06/18 03:39:04;;;;;;;3.02;2.37;;;;;;;17.41;57.18;101266.23;1756864;80;20877;-73
2022/06/18 03:41:31;;;;;;;2.72;2.37;;;;;;;17.45;57.22;101263.92;1758450;81;20872;-73
2022/06/18 03:43:57;;;;;;;8.20;2.75;;;;;;;17.49;57.28;101262.91;1758399;81;20849;-73
2022/06/18 03:46:24;;;;;;;3.02;2.30;;;;;;;17.54;57.29;101270.14;1757322;80;20911;-73
2022/06/18 03:48:57;;;;;;;3.87;2.62;;;;;;;17.59;57.33;101263.91;1758376;81;20900;-74
2022/06/18 03:51:25;;;;;;;4.87;2.33;;;;;;;17.63;57.38;101265.05;1758248;81;20984;-74
2022/06/18 03:53:54;;;;;;;2.70;2.47;;;;;;;17.70;57.40;101269.16;1757935;81;20885;-74
2022/06/18 03:56:24;;;;;;;8.65;2.47;;;;;;;17.73;57.42;101258.59;1758068;80;20896;-74
2022/06/18 03:58:51;;;;;;;3.02;2.02;;;;;;;17.78;57.45;101249.27;1757971;81;20951;-73
2022/06/18 04:01:25;;;;;;;3.98;2.35;;;;;;;17.83;57.47;101248.66;1758548;81;21293;-73
2022/06/18 04:03:51;;;;;;;3.70;2.72;;;;;;;17.91;57.55;101236.61;1760181;80;21076;-73
2022/06/18 04:06:17;;;;;;;2.30;2.10;;;;;;;17.98;57.56;101230.24;1758482;81;21293;-74
2022/06/18 04:08:45;;;;;;;2.42;2.15;;;;;;;18.05;57.58;101227.80;1758578;81;20900;-74
2022/06/18 04:11:12;;;;;;;3.55;2.75;;;;;;;18.11;57.62;101226.27;1757349;81;21083;-74
2022/06/18 04:13:40;;;;;;;2.62;2.12;;;;;;;18.20;57.68;101236.36;1756332;80;21059;-73
2022/06/18 04:16:07;;;;;;;3.55;2.55;;;;;;;18.28;57.71;101229.52;1753363;80;21060;-73
2022/06/18 04:18:34;;;;;;;3.70;2.70;;;;;;;18.36;57.74;101236.17;1748316;81;21116;-73
2022/06/18 04:21:01;;;;;;;4.70;2.55;;;;;;;18.46;57.77;101234.91;1748458;82;21073;-73
2022/06/18 04:23:30;;;;;;;7.17;3.08;;;;;;;18.52;57.77;101240.37;1762332;80;21028;-73
2022/06/18 04:25:57;;;;;;;4.20;2.62;;;;;;;18.60;57.75;101233.52;1756185;81;20928;-73
2022/06/18 04:28:23;;;;;;;2.52;2.20;;;;;;;18.63;57.79;101229.05;1756436;80;21053;-74
2022/06/18 04:30:50;;;;;;;2.52;2.30;;;;;;;18.69;57.80;101231.89;1756554;81;21046;-73
2022/06/18 04:33:17;;;;;;;7.85;2.62;;;;;;;18.73;57.82;101235.60;1756607;81;21096;-74
2022/06/18 04:35:43;;;;;;;2.85;2.27;;;;;;;18.78;57.89;101222.31;1756004;80;21039;-74
2022/06/18 04:38:12;;;;;;;4.97;2.50;;;;;;;18.82;57.92;101218.66;1756035;80;20999;-74
2022/06/18 04:40:39;;;;;;;2.83;2.33;;;;;;;18.86;57.93;101216.31;1757085;81;21019;-74
2022/06/18 04:43:09;;;;;;;2.95;2.65;;;;;;;18.91;57.97;101210.88;1756716;80;21067;-74
2022/06/18 04:45:37;;;;;;;7.03;2.40;;;;;;;18.98;57.99;101208.41;1784895;80;21041;-74
2022/06/18 04:48:06;;;;;;;3.42;2.37;;;;;;;19.05;57.98;101205.92;1757977;81;20904;-74
2022/06/18 04:50:37;;;;;;;3.55;2.60;;;;;;;19.11;57.99;101203.91;1758441;81;20872;-74
2022/06/18 04:53:06;;;;;;;2.92;2.37;;;;;;;19.18;57.97;101201.42;1758017;80;20904;-74
2022/06/18 04:55:33;;;;;;;4.67;2.22;;;;;;;19.23;57.97;101197.75;1758083;81;20955;-73
2022/06/18 04:58:00;;;;;;;2.60;2.22;;;;;;;19.25;57.96;101192.80;1757567;80;20873;-74
2022/06/18 05:00:26;;;;;;;2.92;2.30;;;;;;;19.29;57.96;101191.75;1747759;80;20849;-74
2022/06/18 05:02:53;;;;;;;2.60;1.98;;;;;;;19.33;57.98;101193.33;1758617;81;20900;-74
2022/06/18 05:05:24;;;;;;;2.70;2.25;;;;;;;19.36;57.98;101191.03;1757175;80;26374;-74
2022/06/18 05:07:51;;;;;;;6.12;2.65;;;;;;;19.39;57.97;101193.52;1758690;81;20885;-74
2022/06/18 05:10:19;;;;;;;2.22;2.02;;;;;;;19.42;57.97;101190.77;1758457;81;20897;-74
2022/06/18 05:12:45;;;;;;;2.37;2.02;;;;;;;19.46;58.00;101179.23;1757563;80;20986;-73
2022/06/18 05:15:12;;;;;;;4.03;2.30;;;;;;;19.51;58.00;101177.29;1758501;80;20892;-73
2022/06/18 05:17:43;;;;;;;;;;;;;;;19.58;57.98;101173.47;1761410;80;20873;-74
2022/06/18 05:20:20;;;;;;;7.17;2.22;;;;;;;19.68;58.04;101172.61;1758247;81;20101;-74
2022/06/18 05:22:46;;;;;;;2.72;2.42;;;;;;;19.77;57.97;101170.39;1758394;80;21015;-74
2022/06/18 05:25:15;;;;;;;4.67;2.45;;;;;;;19.89;57.90;101168.98;1757744;80;20861;-73
2022/06/18 05:27:42;;;;;;;3.87;2.10;;;;;;;20.05;57.91;101162.11;1631512;80;5001799;-74
2022/06/18 05:30:13;;;;;;;2.05;1.90;;;;;;;20.23;57.87;101164.34;1738029;81;20910;-73
2022/06/18 05:32:41;;;;;;;3.22;2.27;;;;;;;20.46;57.85;101169.34;1762129;80;21837;-74
2022/06/18 05:35:08;;;;;;;3.77;2.10;;;;;;;20.71;57.75;101168.16;1790166;78;20850;-74
2022/06/18 05:37:35;;;;;;;3.10;1.80;;;;;;;20.95;57.68;101169.54;1790181;79;20847;-74
2022/06/18 05:40:03;;;;;;;2.90;2.25;;;;;;;21.14;57.56;101166.37;1801274;79;20867;-74
2022/06/18 05:42:30;;;;;;;5.42;2.27;;;;;;;21.33;57.55;101158.84;1782299;78;20941;-74
2022/06/18 05:44:56;;;;;;;3.00;2.05;;;;;;;21.58;57.48;101154.47;1788692;79;21020;-74
2022/06/18 05:47:28;;;;;;;11.38;2.35;;;;;;;21.77;57.22;101152.55;1777625;80;21374;-74
2022/06/18 05:49:56;;;;;;;4.20;2.35;;;;;;;21.93;57.13;101153.39;1766210;80;21423;-73
2022/06/18 05:52:23;;;;;;;4.97;2.40;;;;;;;22.18;57.12;101148.13;1776410;78;21118;-74
2022/06/18 05:54:53;;;;;;;4.53;2.35;;;;;;;22.56;56.93;101149.89;1788359;79;20910;-74
2022/06/18 05:57:21;;;;;;;3.92;2.80;;;;;;;22.75;56.75;101150.06;1783899;78;21029;-74
2022/06/18 05:59:48;;;;;;;3.12;2.55;;;;;;;22.92;56.59;101156.98;1776784;80;21782;-74
2022/06/18 06:02:18;;;;;;;5.55;2.95;;;;;;;23.06;56.48;101159.66;1774102;78;20957;-74
2022/06/18 06:04:45;;;;;;;4.97;3.58;;;;;;;23.34;56.51;101162.83;1785246;80;20961;-74
2022/06/18 06:07:20;;;;;;;3.30;2.72;;;;;;;23.96;56.49;101165.15;1787899;80;21025;-74
2022/06/18 06:12:38;;;;;;;3.85;2.30;;;;;;;25.38;55.75;101155.27;1790025;80;20921;-74
2022/06/18 06:15:05;;;;;;;;;;;;;;;25.70;55.33;101148.58;1792745;78;20937;-74
2022/06/18 06:17:32;;;;;;;1.72;1.60;;;;;;;25.81;54.38;101138.54;1767885;80;20117;-74
2022/06/18 06:20:07;;;;;;;4.25;1.70;;;;;;;25.94;55.02;101138.52;1757279;81;21492;-74
2022/06/18 06:22:35;;;;;;;2.50;1.60;;;;;;;26.23;54.92;101138.55;1776631;78;20873;-74
2022/06/18 06:25:03;;;;;;;3.22;1.85;;;;;;;26.53;54.47;101129.29;1772688;80;21020;-74
2022/06/18 06:27:29;;;;;;;3.00;1.52;;;;;;;26.99;54.30;101132.85;1780060;78;21095;-74
2022/06/18 06:29:57;;;;;;;2.22;1.60;;;;;;;27.67;54.15;101123.95;1778432;80;20993;-74
2022/06/18 06:32:23;;;;;;;9.55;1.95;;;;;;;28.38;53.54;101126.22;1779451;78;21020;-76
2022/06/18 06:34:49;;;;;;;2.25;1.87;;;;;;;28.56;52.91;101120.70;1717774;82;21763;-73
2022/06/18 06:37:17;;;;;;;6.92;1.62;;;;;;;28.71;52.17;101119.39;1713031;82;21054;-73
2022/06/18 06:39:44;;;;;;;1.92;1.60;;;;;;;29.20;52.12;101120.05;1707214;82;20898;-71
2022/06/18 06:42:10;;;;;;;5.15;1.75;;;;;;;29.33;51.43;101124.68;1715047;83;21410;-71
2022/06/18 06:44:36;;;;;;;8.53;1.90;;;;;;;29.30;51.01;101118.28;1734151;82;20879;-71
2022/06/18 06:47:03;;;;;;;6.00;1.80;;;;;;;29.09;50.56;101110.00;1736261;82;20958;-73
2022/06/18 06:49:30;;;;;;;2.85;1.52;;;;;;;28.92;50.24;101104.78;1743149;80;20930;-72
2022/06/18 06:51:56;;;;;;;1.75;1.50;;;;;;;28.87;49.84;101095.86;1738406;82;20875;-72
2022/06/18 06:54:23;;;;;;;3.20;2.00;;;;;;;28.85;49.40;101093.81;1733470;81;20958;-74
2022/06/18 06:59:37;;;;;;;6.00;2.00;;;;;;;29.08;48.72;101097.17;1728240;82;20985;-74
2022/06/18 07:02:12;;;;;;;3.15;1.90;;;;;;;29.01;48.04;101100.49;1734536;81;20867;-74
2022/06/18 07:04:38;;;;;;;2.45;1.50;;;;;;;28.77;47.73;101106.05;1729759;82;20922;-74
2022/06/18 07:07:13;;;;;;;2.30;1.72;;;;;;;28.66;47.60;101105.63;1731691;81;20986;-74
2022/06/18 07:09:40;;;;;;;4.12;2.47;;;;;;;29.38;47.35;101102.96;1722897;82;21128;-75
2022/06/18 07:12:08;;;;;;;3.67;2.25;;;;;;;30.16;47.02;101102.69;1733143;81;22281;-75
2022/06/18 07:14:36;;;;;;;2.65;1.72;;;;;;;30.75;46.56;101093.69;1731368;82;20994;-75
2022/06/18 07:17:03;;;;;;;6.42;1.70;;;;;;;31.23;46.29;101086.39;1729243;82;21059;-75
2022/06/18 07:19:30;;;;;;;6.22;2.00;;;;;;;31.70;46.04;101086.83;1733619;82;21479;-75
2022/06/18 07:21:56;;;;;;;2.12;1.60;;;;;;;32.02;45.52;101088.98;1732664;81;21089;-75
2022/06/18 07:24:22;;;;;;;3.17;1.80;;;;;;;32.30;45.17;101084.41;1735607;82;21112;-75
2022/06/18 07:26:49;;;;;;;;;;;;;;;32.52;44.44;101089.29;1735798;81;21571;-75
2022/06/18 07:29:20;;;;;;;2.47;1.50;;;;;;;32.78;44.07;101083.96;1737818;82;20190;-75
2022/06/18 07:31:44;;;;;;;4.10;1.62;;;;;;;33.07;43.85;101079.62;1717361;82;21034;-75
2022/06/18 07:34:11;;;;;;;1.47;1.22;;;;;;;33.37;42.97;101083.13;1729882;82;26951;-75
2022/06/18 07:36:41;;;;;;;2.52;1.40;;;;;;;33.49;42.47;101079.16;1737036;81;20971;-74
2022/06/18 07:39:07;;;;;;;3.47;1.52;;;;;;;33.45;41.81;101078.30;1736480;82;21034;-75
2022/06/18 07:41:40;;;;;;;4.17;1.50;;;;;;;33.21;41.30;101074.52;1744104;82;21077;-76
2022/06/18 07:44:07;;;;;;;4.65;1.32;;;;;;;32.96;40.67;101071.86;1710487;83;20933;-76
2022/06/18 07:46:33;;;;;;;2.52;1.52;;;;;;;32.64;40.31;101070.64;1784003;78;21354;-76
2022/06/18 07:48:59;;;;;;;4.08;1.60;;;;;;;32.54;40.16;101065.88;1773906;79;20909;-76
2022/06/18 07:51:26;;;;;;;;;;;;;;;32.60;39.82;101068.43;1778641;78;21851;-75
2022/06/18 07:53:53;;;;;;;3.95;1.60;;;;;;;32.65;39.17;101057.59;1758189;80;20544;-76
2022/06/18 07:56:21;;;;;;;9.68;2.22;;;;;;;32.57;39.06;101056.19;1776902;78;20937;-76
2022/06/18 07:58:48;;;;;;;3.35;1.30;;;;;;;32.55;38.45;101055.51;1781821;78;20960;-76
2022/06/18 08:01:14;;;;;;;;;;;;;;;32.55;38.45;101055.51;1716642;82;20941;-76
2022/06/18 08:03:40;;;;;;;;;;;;;;;32.54;38.22;101047.13;1728027;82;20124;-76
2022/06/18 08:06:07;;;;;;;;;;;;;;;32.43;37.34;101036.17;1720190;82;20398;-76
2022/06/18 08:08:34;;;;;;;3.08;1.40;;;;;;;32.14;37.65;101038.27;1711633;82;20130;-76
2022/06/18 08:11:06;;;;;;;3.77;1.27;;;;;;;31.98;37.78;101044.31;1761999;78;21080;-76
2022/06/18 08:13:33;;;;;;;2.90;1.27;;;;;;;31.82;37.29;101030.77;1781807;79;20989;-76
2022/06/18 08:15:59;;;;;;;1.95;1.40;;;;;;;31.55;36.99;101027.14;1772084;78;21040;-76
2022/06/18 08:18:25;;;;;;;;;;;;;;;31.37;36.84;101030.27;1780107;79;20969;-76
2022/06/18 08:20:51;;;;;;;1.80;1.50;;;;;;;31.39;36.72;101019.43;1780440;78;20221;-76
2022/06/18 08:23:18;;;;;;;6.92;1.70;;;;;;;31.71;36.85;101015.81;1779389;78;27394;-76
2022/06/18 08:25:44;;;;;;;1.35;1.25;;;;;;;32.09;36.52;101020.50;1768839;80;21083;-76
2022/06/18 08:28:11;;;;;;;10.15;1.60;;;;;;;32.17;35.78;101024.09;1775543;78;21016;-76
2022/06/18 08:30:41;;;;;;;2.17;1.20;;;;;;;32.27;35.69;101018.64;1764163;80;21327;-76
2022/06/18 08:33:07;;;;;;;2.45;1.40;;;;;;;32.25;35.05;101007.25;1777084;78;21012;-76
2022/06/18 08:35:36;;;;;;;;;;;;;;;32.30;34.96;101006.29;1776289;79;21005;-76
2022/06/18 08:38:05;;;;;;;1.70;1.27;;;;;;;32.43;35.17;100997.85;1764037;79;20198;-76
2022/06/18 08:40:44;;;;;;;2.58;1.25;;;;;;;32.48;34.89;101003.08;1784500;78;21472;-75
2022/06/18 08:43:27;;;;;;;2.50;1.80;;;;;;;32.55;34.68;100993.42;1774788;78;21051;-75
2022/06/18 08:46:24;;;;;;;8.53;1.40;;;;;;;32.67;34.31;100998.52;1725577;79;22090;-75
2022/06/18 08:49:09;;;;;;;;;;;;;;;32.73;34.07;101003.23;1790466;78;21090;-75
2022/06/18 08:51:52;;;;;;;2.65;1.20;;;;;;;32.82;34.41;100988.39;1782134;78;20911;-75
2022/06/18 08:54:54;;;;;;;5.62;1.67;;;;;;;32.98;33.89;100991.66;1777382;79;20913;-76
2022/06/18 08:57:36;;;;;;;3.52;1.20;;;;;;;32.94;33.70;100978.73;1786004;79;20909;-76
2022/06/18 09:00:20;;;;;;;1.77;1.30;;;;;;;32.90;33.55;100976.88;1772837;78;20925;-76
2022/06/18 09:03:10;;;;;;;1.57;1.25;;;;;;;32.83;33.17;100967.30;1782546;79;20906;-76
2022/06/18 09:05:54;;;;;;;2.97;1.37;;;;;;;32.75;33.14;100973.12;1781187;78;20953;-76
2022/06/18 09:08:52;;;;;;;3.10;1.40;;;;;;;32.74;32.93;100968.27;1741630;80;22360;-76
2022/06/18 09:12:00;;;;;;;2.47;1.00;;;;;;;32.67;32.63;100960.52;1710574;83;21149;-76
2022/06/18 09:14:49;;;;;;;1.82;1.22;;;;;;;32.64;32.46;100966.69;1736701;81;21475;-76
2022/06/18 09:17:33;;;;;;;1.77;1.52;;;;;;;32.49;32.21;100959.24;1740109;80;21048;-76
2022/06/18 09:20:19;;;;;;;2.25;1.42;;;;;;;32.28;32.10;100948.56;1735610;80;20941;-76
2022/06/18 09:22:51;;;;;;;2.47;1.90;;;;;;;32.21;32.12;100947.01;1741373;81;21588;-76
2022/06/18 09:25:21;;;;;;;3.35;1.37;;;;;;;32.12;31.74;100947.94;1732522;81;21641;-76
2022/06/18 09:27:58;;;;;;;3.27;1.50;;;;;;;31.98;31.71;100943.98;1740472;81;21698;-76
2022/06/18 09:30:36;;;;;;;3.35;1.30;;;;;;;31.79;31.49;100940.98;1739496;80;21545;-76
2022/06/18 09:33:24;;;;;;;3.58;1.20;;;;;;;31.64;31.41;100941.67;1742669;80;22235;-76
2022/06/18 09:36:01;;;;;;;2.17;1.20;;;;;;;31.43;31.20;100936.13;1753139;80;21468;-75
2022/06/18 09:38:35;;;;;;;3.55;1.20;;;;;;;31.23;31.24;100929.22;1749239;81;28150;-75
2022/06/18 09:41:11;;;;;;;2.25;1.00;;;;;;;31.12;31.14;100922.25;1755578;81;21051;-75
2022/06/18 09:43:51;;;;;;;4.53;1.10;;;;;;;30.96;30.97;100914.05;1753212;80;21518;-75
2022/06/18 09:46:40;;;;;;;1.60;1.00;;;;;;;30.84;30.84;100914.74;1755116;81;21440;-75
2022/06/18 09:49:06;;;;;;;2.83;0.90;;;;;;;30.68;30.80;100905.19;1717192;81;21140;-75
2022/06/18 09:52:04;;;;;;;3.67;0.93;;;;;;;30.55;30.50;100902.85;1715424;82;21528;-75
2022/06/18 09:54:51;;;;;;;1.80;0.90;;;;;;;30.44;30.57;100894.19;1712129;82;21605;-75
2022/06/18 09:57:21;;;;;;;1.30;1.05;;;;;;;30.32;30.54;100890.01;1720002;81;20981;-75
2022/06/18 10:00:02;;;;;;;2.22;0.98;;;;;;;30.25;30.52;100889.74;1709538;81;21103;-75
2022/06/18 10:02:32;;;;;;;1.65;1.12;;;;;;;30.19;30.50;100877.83;1723581;82;21568;-76
2022/06/18 10:07:51;;;;;;;3.20;1.10;;;;;;;30.12;30.44;100874.09;1716509;82;21983;-76
2022/06/18 10:10:24;;;;;;;4.20;0.90;;;;;;;30.12;30.40;100878.58;1717513;82;21648;-76
2022/06/18 10:12:55;;;;;;;3.35;1.05;;;;;;;30.09;30.32;100870.38;1735338;81;21496;-76
2022/06/18 10:15:27;;;;;;;4.28;1.10;;;;;;;30.08;30.33;100884.69;1746618;80;20992;-76
2022/06/18 10:18:17;;;;;;;1.45;1.05;;;;;;;30.09;30.24;100877.04;1746539;81;21100;-76
2022/06/18 10:21:00;;;;;;;1.77;0.90;;;;;;;30.04;30.17;100868.63;1742515;81;21060;-76
2022/06/18 10:23:58;;;;;;;2.20;0.90;;;;;;;30.00;30.21;100869.06;1747873;81;20870;-76
2022/06/18 10:26:53;;;;;;;7.53;1.22;;;;;;;29.95;30.13;100860.96;1745543;80;20913;-76
2022/06/18 10:29:42;;;;;;;10.10;2.17;;;;;;;29.90;30.10;100850.37;1746638;81;20898;-76
2022/06/18 10:32:20;;;;;;;2.75;1.00;;;;;;;29.88;30.08;100857.67;1748017;81;20945;-75
2022/06/18 10:34:54;;;;;;;4.95;1.45;;;;;;;29.86;30.13;100858.31;1746248;80;21421;-76
2022/06/18 10:37:44;;;;;;;6.53;1.27;;;;;;;29.86;30.14;100848.48;1743868;81;21017;-76
2022/06/18 10:40:24;;;;;;;3.45;0.90;;;;;;;29.86;30.07;100847.64;1735430;81;20938;-76
2022/06/18 10:43:50;;;;;;;1.82;0.90;;;;;;;29.90;30.03;100847.71;1785118;78;21464;-76
2022/06/18 10:46:20;;;;;;;2.47;0.82;;;;;;;29.92;30.09;100844.41;1777234;78;21016;-76
2022/06/18 10:48:55;;;;;;;3.37;1.30;;;;;;;29.99;30.09;100845.52;1783430;80;21438;-75
2022/06/18 10:51:25;;;;;;;2.12;1.00;;;;;;;30.04;30.06;100837.12;1770247;78;21037;-75
2022/06/18 10:54:02;;;;;;;1.90;1.00;;;;;;;30.10;30.02;100837.88;1783621;78;21008;-75
2022/06/18 10:56:34;;;;;;;7.22;1.00;;;;;;;30.19;30.07;100832.48;1766776;81;21083;-75
2022/06/18 10:59:03;;;;;;;1.45;0.80;;;;;;;30.29;30.05;100835.95;1763245;78;21017;-75
2022/06/18 11:01:42;;;;;;;4.22;1.15;;;;;;;30.36;29.91;100824.20;1776144;80;21052;-75
2022/06/18 11:04:23;;;;;;;3.15;1.10;;;;;;;30.39;29.72;100832.41;1761665;78;21435;-77
2022/06/18 11:07:00;;;;;;;4.60;1.22;;;;;;;30.42;29.76;100822.28;1774821;80;21587;-76
2022/06/18 11:09:35;;;;;;;4.37;1.20;;;;;;;30.43;29.66;100815.11;1778021;78;21579;-76
2022/06/18 11:12:08;;;;;;;4.03;0.98;;;;;;;30.44;29.65;100825.64;1775464;79;21047;-76
2022/06/18 11:14:43;;;;;;;4.20;1.00;;;;;;;30.50;29.67;100815.70;1778567;78;21053;-76
2022/06/18 11:17:23;;;;;;;6.47;1.25;;;;;;;30.52;29.41;100803.05;1764786;78;21103;-76
2022/06/18 11:19:50;;;;;;;1.67;1.00;;;;;;;30.56;29.45;100800.92;1762757;78;21004;-76
2022/06/18 11:22:26;;;;;;;2.87;1.02;;;;;;;30.57;29.44;100792.80;1777209;80;21087;-76
2022/06/18 11:25:01;;;;;;;2.80;1.22;;;;;;;30.63;29.45;100799.87;1783485;78;21037;-76
2022/06/18 11:27:36;;;;;;;2.80;1.10;;;;;;;30.72;29.52;100801.11;1783206;78;21033;-75
2022/06/18 11:30:11;;;;;;;1.95;1.12;;;;;;;30.80;29.29;100799.87;1782338;80;21064;-75
2022/06/18 11:32:46;;;;;;;1.22;1.00;;;;;;;30.83;29.31;100788.89;1755921;80;21526;-75
2022/06/18 11:35:31;;;;;;;3.70;1.10;;;;;;;30.85;29.25;100795.41;1779187;78;21025;-75
2022/06/18 11:38:02;;;;;;;2.27;1.40;;;;;;;30.86;29.00;100787.25;1760509;80;20932;-75
2022/06/18 11:40:31;;;;;;;5.05;1.12;;;;;;;30.89;29.16;100791.45;1754038;81;21049;-75
2022/06/18 11:43:06;;;;;;;1.90;1.00;;;;;;;30.88;29.14;100778.59;1742765;80;21021;-75
2022/06/18 11:45:57;;;;;;;3.15;1.00;;;;;;;30.87;29.05;100774.25;1742812;81;21087;-76
2022/06/18 11:48:44;;;;;;;1.60;1.02;;;;;;;30.88;29.08;100778.59;1752256;81;21104;-75
2022/06/18 11:51:33;;;;;;;2.10;1.40;;;;;;;30.90;29.06;100764.59;1750751;80;21067;-76
2022/06/18 11:54:20;;;;;;;7.78;1.02;;;;;;;30.99;29.00;100757.50;1756669;81;21119;-76
2022/06/18 11:57:07;;;;;;;1.52;1.30;;;;;;;31.05;29.03;100762.23;1746835;81;20979;-76
2022/06/18 11:59:52;;;;;;;6.35;1.10;;;;;;;31.11;29.03;100750.94;1738353;80;21066;-76
2022/06/18 12:02:30;;;;;;;5.03;1.10;;;;;;;31.17;28.99;100762.87;1743882;80;20876;-76
2022/06/18 12:05:08;;;;;;;3.00;0.90;;;;;;;31.28;28.89;100754.58;1754205;80;21326;-76